Time;durP1;ratioP1;P1;durP2;ratioP2;P2;SDS_P1;SDS_P2;PMS_P1;PMS_P2;Temp;Humidity;BMP_temperature;BMP_pressure;BME280_temperature;BME280_humidity;BME280_pressure;Samples;Min_cycle;Max_cycle;Signal;HPM_P1;HPM_P2
2023/06/20 00:01:20;;;;;;;17.45;12.90;;;18.00;99.90;;;;;;5041278;28;20501;-60
2023/06/20 00:03:46;;;;;;;21.90;15.05;;;18.00;99.90;;;;;;5061838;28;20036;-61
2023/06/20 00:06:12;;;;;;;19.08;14.10;;;18.00;99.90;;;;;;5064988;28;20036;-61
2023/06/20 00:08:37;;;;;;;17.40;13.93;;;18.00;99.90;;;;;;5062693;28;20037;-60
2023/06/20 00:11:03;;;;;;;24.63;17.05;;;18.00;99.90;;;;;;5034008;28;20536;-60
2023/06/20 00:13:29;;;;;;;15.13;13.50;;;18.00;99.90;;;;;;5067452;28;20423;-60
2023/06/20 00:15:57;;;;;;;20.08;15.65;;;18.00;99.90;;;;;;5059549;28;20040;-60
2023/06/20 00:18:24;;;;;;;20.08;15.38;;;17.90;99.90;;;;;;5056387;28;20079;-61
2023/06/20 00:20:53;;;;;;;20.58;16.15;;;17.90;99.90;;;;;;5029724;28;20049;-60
2023/06/20 00:23:21;;;;;;;20.17;16.08;;;17.80;99.90;;;;;;5046117;28;20131;-60
2023/06/20 00:25:48;;;;;;;22.05;15.75;;;17.80;99.90;;;;;;5064083;28;20479;-60
2023/06/20 00:28:17;;;;;;;18.02;15.65;;;17.80;99.90;;;;;;5042672;28;21753;-60
2023/06/20 00:30:43;;;;;;;21.10;15.80;;;17.70;99.90;;;;;;5044009;28;20460;-60
2023/06/20 00:33:08;;;;;;;18.30;15.90;;;17.70;99.90;;;;;;5035235;28;20049;-60
2023/06/20 00:35:34;;;;;;;21.10;16.83;;;17.70;99.90;;;;;;5044385;28;20043;-60
2023/06/20 00:38:01;;;;;;;19.65;15.07;;;17.70;99.90;;;;;;5065381;28;20040;-60
2023/06/20 00:40:27;;;;;;;22.73;17.20;;;17.70;99.90;;;;;;5046732;28;20047;-60
2023/06/20 00:42:53;;;;;;;25.92;15.77;;;17.70;99.90;;;;;;5045704;28;20053;-60
2023/06/20 00:45:26;;;;;;;22.02;16.30;;;17.70;99.90;;;;;;5045608;28;20059;-60
2023/06/20 00:47:52;;;;;;;21.40;15.25;;;17.70;99.90;;;;;;5063581;28;20048;-59
2023/06/20 00:50:18;;;;;;;21.95;16.13;;;17.70;99.90;;;;;;5061128;28;20577;-60
2023/06/20 00:52:46;;;;;;;15.27;13.05;;;17.80;99.90;;;;;;5064838;28;20060;-60
2023/06/20 00:55:12;;;;;;;17.63;14.30;;;17.80;99.90;;;;;;5048229;28;20388;-60
2023/06/20 00:57:42;;;;;;;22.40;15.60;;;17.80;99.90;;;;;;5064690;28;20151;-61
2023/06/20 01:00:12;;;;;;;19.15;14.82;;;17.90;99.90;;;;;;5043799;28;20091;-60
2023/06/20 01:02:38;;;;;;;18.42;15.73;;;17.90;99.90;;;;;;5045823;28;20056;-60
2023/06/20 01:05:04;;;;;;;23.25;16.73;;;18.00;99.90;;;;;;5030229;28;20048;-59
2023/06/20 01:07:42;;;;;;;21.15;17.67;;;18.00;99.90;;;;;;5038554;28;20504;-60
2023/06/20 01:10:12;;;;;;;19.70;15.88;;;18.00;99.90;;;;;;5046603;28;20037;-59
2023/06/20 01:13:08;;;;;;;18.52;16.00;;;18.00;99.90;;;;;;5041958;28;20098;-59
2023/06/20 01:15:37;;;;;;;22.88;17.67;;;18.00;99.90;;;;;;5056056;28;20055;-60
2023/06/20 01:18:26;;;;;;;22.80;17.73;;;18.00;99.90;;;;;;5062665;28;20063;-60
2023/06/20 01:21:01;;;;;;;24.52;18.48;;;18.00;99.90;;;;;;5028668;28;20052;-59
2023/06/20 01:23:53;;;;;;;22.67;17.65;;;18.00;99.90;;;;;;5063150;28;20037;-60
2023/06/20 01:27:01;;;;;;;21.38;15.90;;;18.00;99.90;;;;;;5028738;28;20044;-59
2023/06/20 01:29:42;;;;;;;22.92;18.50;;;17.90;99.90;;;;;;4965677;28;20049;-60
2023/06/20 01:32:13;;;;;;;23.27;20.00;;;18.00;99.90;;;;;;5039307;28;20049;-60
2023/06/20 01:34:47;;;;;;;23.77;18.50;;;18.00;99.90;;;;;;5049359;28;20052;-59
2023/06/20 01:37:17;;;;;;;24.73;18.10;;;18.00;99.90;;;;;;5042285;28;20049;-61
2023/06/20 01:39:49;;;;;;;27.63;18.58;;;18.00;99.90;;;;;;5062664;28;20055;-60
2023/06/20 01:42:17;;;;;;;26.60;19.55;;;18.00;99.90;;;;;;5067307;28;20048;-60
2023/06/20 01:44:44;;;;;;;27.85;18.95;;;18.00;99.90;;;;;;5029136;28;20106;-61
2023/06/20 01:47:11;;;;;;;18.10;15.43;;;18.00;99.90;;;;;;5032410;28;20498;-60
2023/06/20 01:49:39;;;;;;;21.70;17.27;;;17.90;99.90;;;;;;5063432;28;20047;-60
2023/06/20 01:52:06;;;;;;;22.17;17.30;;;17.90;99.90;;;;;;5045631;28;20626;-61
2023/06/20 01:54:34;;;;;;;22.38;17.20;;;18.00;99.90;;;;;;5063702;28;20029;-59
2023/06/20 01:57:02;;;;;;;23.92;18.20;;;18.00;99.90;;;;;;5027335;28;20063;-60
2023/06/20 01:59:28;;;;;;;20.73;18.25;;;18.00;99.90;;;;;;5045808;28;20040;-60
2023/06/20 02:01:58;;;;;;;22.55;19.05;;;18.00;99.90;;;;;;5058608;28;20120;-60
2023/06/20 02:04:25;;;;;;;20.23;17.25;;;18.00;99.90;;;;;;5056885;28;20044;-60
2023/06/20 02:06:52;;;;;;;23.45;19.48;;;18.10;99.90;;;;;;5010003;28;20051;-59
2023/06/20 02:09:18;;;;;;;20.08;15.95;;;18.00;99.90;;;;;;5026536;28;20514;-59
2023/06/20 02:11:46;;;;;;;22.98;17.83;;;18.00;99.90;;;;;;5045618;28;20033;-60
2023/06/20 02:14:12;;;;;;;24.48;17.38;;;18.00;99.90;;;;;;5058226;28;20402;-60
2023/06/20 02:16:40;;;;;;;19.00;15.35;;;18.00;99.90;;;;;;5042162;28;20548;-61
2023/06/20 02:19:07;;;;;;;19.17;15.48;;;18.00;99.90;;;;;;5023501;28;20052;-60
2023/06/20 02:21:37;;;;;;;19.00;14.30;;;18.00;99.90;;;;;;5063120;28;20563;-60
2023/06/20 02:24:05;;;;;;;17.83;13.75;;;18.00;99.90;;;;;;5056808;28;20094;-60
2023/06/20 02:26:32;;;;;;;17.55;14.70;;;18.00;99.90;;;;;;5060745;28;20047;-60
2023/06/20 02:29:07;;;;;;;17.80;15.15;;;18.00;99.90;;;;;;5059232;28;20040;-60
2023/06/20 02:31:36;;;;;;;18.83;13.98;;;18.00;99.90;;;;;;5063399;28;20101;-60
2023/06/20 02:34:05;;;;;;;14.68;13.18;;;18.00;99.90;;;;;;5063055;28;20044;-60
2023/06/20 02:36:33;;;;;;;16.23;13.20;;;18.00;99.90;;;;;;5026737;28;20040;-59
2023/06/20 02:38:59;;;;;;;15.05;13.15;;;18.00;99.90;;;;;;5058817;28;20044;-60
2023/06/20 02:41:25;;;;;;;18.17;13.90;;;18.00;99.90;;;;;;5056049;28;20450;-61
2023/06/20 02:43:51;;;;;;;14.48;12.25;;;18.00;99.90;;;;;;5056890;28;20037;-60
2023/06/20 02:46:44;;;;;;;21.45;14.13;;;17.90;99.90;;;;;;5020112;28;20037;-60
2023/06/20 02:49:21;;;;;;;16.60;13.10;;;18.00;99.90;;;;;;5043701;28;20056;-60
2023/06/20 02:52:02;;;;;;;17.40;12.68;;;17.90;99.90;;;;;;5030575;28;20043;-60
2023/06/20 02:55:09;;;;;;;20.23;13.30;;;17.90;99.90;;;;;;5057160;28;20045;-61
2023/06/20 02:57:39;;;;;;;15.38;11.07;;;18.00;99.90;;;;;;5031993;28;20383;-60
2023/06/20 03:00:09;;;;;;;21.63;12.68;;;17.90;99.90;;;;;;5047989;28;20041;-60
2023/06/20 03:02:50;;;;;;;13.18;11.05;;;17.90;99.90;;;;;;5062069;28;20633;-60
2023/06/20 03:05:18;;;;;;;14.50;11.20;;;17.90;99.90;;;;;;5059574;28;20495;-60
2023/06/20 03:07:44;;;;;;;15.65;12.18;;;17.90;99.90;;;;;;5039978;28;20051;-60
2023/06/20 03:10:11;;;;;;;15.45;12.15;;;17.90;99.90;;;;;;5063561;28;20052;-60
2023/06/20 03:12:38;;;;;;;15.38;12.10;;;18.00;99.90;;;;;;5058159;28;20339;-59
2023/06/20 03:15:04;;;;;;;14.73;11.45;;;18.00;99.90;;;;;;5039072;28;20044;-59
2023/06/20 03:17:35;;;;;;;16.42;10.75;;;18.00;99.90;;;;;;5040879;28;20333;-60
2023/06/20 03:20:06;;;;;;;18.60;11.93;;;18.00;99.90;;;;;;5039829;28;20045;-60
2023/06/20 03:22:31;;;;;;;15.32;11.70;;;18.00;99.90;;;;;;5042097;28;20043;-60
2023/06/20 03:24:57;;;;;;;17.02;10.73;;;17.90;99.90;;;;;;5043219;28;20269;-58
2023/06/20 03:27:22;;;;;;;14.98;12.05;;;17.90;99.90;;;;;;5045144;28;20052;-60
2023/06/20 03:29:48;;;;;;;17.27;11.93;;;17.90;99.90;;;;;;5041506;28;20047;-60
2023/06/20 03:32:14;;;;;;;15.68;10.10;;;17.90;99.90;;;;;;5046718;28;20036;-60
2023/06/20 03:34:39;;;;;;;16.08;10.38;;;17.90;99.90;;;;;;5065247;28;20460;-60
2023/06/20 03:37:05;;;;;;;15.15;11.43;;;17.80;99.90;;;;;;5046165;28;20137;-59
2023/06/20 03:39:32;;;;;;;15.80;11.48;;;17.90;99.90;;;;;;5064749;28;21466;-60
2023/06/20 03:41:58;;;;;;;11.95;9.88;;;17.90;99.90;;;;;;5048929;28;20581;-59
2023/06/20 03:44:23;;;;;;;14.10;9.80;;;17.80;99.90;;;;;;5064592;28;20048;-60
2023/06/20 03:46:49;;;;;;;17.00;10.90;;;17.80;99.90;;;;;;5065582;28;20075;-59
2023/06/20 03:49:15;;;;;;;13.07;10.00;;;17.80;99.90;;;;;;5046023;28;20036;-60
2023/06/20 03:51:41;;;;;;;14.30;10.18;;;17.90;99.90;;;;;;5047774;28;20032;-60
2023/06/20 03:54:06;;;;;;;16.30;11.25;;;17.90;99.90;;;;;;5046971;28;20449;-60
2023/06/20 03:56:32;;;;;;;12.30;9.50;;;17.90;99.90;;;;;;5046262;28;20083;-60
2023/06/20 03:58:58;;;;;;;17.02;10.38;;;17.90;99.90;;;;;;5041889;28;20154;-59
2023/06/20 04:01:24;;;;;;;13.18;10.23;;;18.00;99.90;;;;;;5052398;28;20029;-60
2023/06/20 04:03:50;;;;;;;12.05;9.00;;;18.00;99.90;;;;;;5050557;28;20032;-60
2023/06/20 04:06:16;;;;;;;11.50;9.30;;;18.00;99.90;;;;;;5065409;28;20040;-59
2023/06/20 04:08:42;;;;;;;11.27;8.93;;;18.00;99.90;;;;;;5045204;28;20095;-60
2023/06/20 04:11:08;;;;;;;13.23;9.48;;;18.10;99.90;;;;;;5065887;28;20045;-61
2023/06/20 04:13:34;;;;;;;12.73;9.10;;;18.10;99.90;;;;;;5041083;28;20347;-60
2023/06/20 04:16:00;;;;;;;12.95;9.45;;;18.10;99.90;;;;;;5065115;28;20120;-60
2023/06/20 04:18:25;;;;;;;12.25;9.13;;;18.20;99.90;;;;;;5046012;28;20055;-60
2023/06/20 04:20:51;;;;;;;11.80;9.05;;;18.20;99.90;;;;;;5045504;28;20055;-61
2023/06/20 04:23:17;;;;;;;12.32;9.52;;;18.20;99.90;;;;;;5065728;28;20522;-61
2023/06/20 04:25:42;;;;;;;13.68;9.85;;;18.20;99.90;;;;;;5051337;28;20129;-61
2023/06/20 04:28:08;;;;;;;13.63;8.90;;;18.20;99.90;;;;;;5044995;28;20052;-61
2023/06/20 04:30:34;;;;;;;12.55;10.52;;;18.30;99.90;;;;;;5041061;28;20037;-61
2023/06/20 04:32:59;;;;;;;12.75;9.27;;;18.20;99.90;;;;;;5038927;28;20454;-61
2023/06/20 04:35:25;;;;;;;13.52;9.77;;;18.30;99.90;;;;;;5047781;28;20032;-61
2023/06/20 04:37:53;;;;;;;10.88;9.15;;;18.30;99.90;;;;;;5046263;28;20051;-61
2023/06/20 04:40:19;;;;;;;12.52;9.43;;;18.30;99.90;;;;;;5047145;28;20051;-61
2023/06/20 04:42:49;;;;;;;13.13;9.55;;;18.30;99.90;;;;;;5062512;28;20507;-61
2023/06/20 04:45:15;;;;;;;14.18;10.60;;;18.30;99.90;;;;;;5067781;28;20040;-61
2023/06/20 04:47:42;;;;;;;13.43;10.00;;;18.30;99.90;;;;;;5061882;28;20045;-61
2023/06/20 04:50:09;;;;;;;12.02;9.73;;;18.40;99.90;;;;;;5059532;28;20388;-61
2023/06/20 04:52:35;;;;;;;11.60;9.43;;;18.40;99.90;;;;;;5042905;28;20043;-61
2023/06/20 04:55:03;;;;;;;11.00;7.88;;;18.40;99.90;;;;;;5048833;28;20040;-61
2023/06/20 04:57:30;;;;;;;12.15;8.95;;;18.40;99.90;;;;;;5061184;28;20127;-61
2023/06/20 04:59:56;;;;;;;12.77;9.57;;;18.40;99.90;;;;;;5057378;28;20045;-61
2023/06/20 05:02:23;;;;;;;18.75;9.68;;;18.50;99.90;;;;;;5067698;28;20503;-61
2023/06/20 05:04:49;;;;;;;14.70;9.60;;;18.50;99.90;;;;;;5056810;28;20435;-61
2023/06/20 05:07:15;;;;;;;13.85;9.48;;;18.50;99.90;;;;;;5058594;28;20045;-61
2023/06/20 05:09:40;;;;;;;12.55;9.38;;;18.50;99.90;;;;;;5048082;28;20052;-61
2023/06/20 05:12:06;;;;;;;11.18;8.63;;;18.50;99.90;;;;;;5045952;28;20116;-61
2023/06/20 05:14:32;;;;;;;11.65;9.30;;;18.60;99.90;;;;;;5058865;28;20039;-61
2023/06/20 05:16:58;;;;;;;12.07;9.77;;;18.60;99.90;;;;;;5065279;28;20427;-61
2023/06/20 05:19:23;;;;;;;14.25;10.63;;;18.60;99.90;;;;;;5041659;28;20044;-61
2023/06/20 05:21:49;;;;;;;14.88;9.10;;;18.60;99.90;;;;;;5030226;28;20036;-61
2023/06/20 05:24:15;;;;;;;13.48;9.05;;;18.60;99.90;;;;;;5056182;28;20041;-60
2023/06/20 05:26:41;;;;;;;12.23;9.27;;;18.60;99.90;;;;;;5022945;28;20036;-61
2023/06/20 05:29:06;;;;;;;11.80;9.02;;;18.70;99.90;;;;;;5056435;28;20087;-61
2023/06/20 05:31:32;;;;;;;12.55;9.95;;;18.60;99.90;;;;;;5056582;28;22071;-61
2023/06/20 05:33:58;;;;;;;12.20;9.52;;;18.70;99.90;;;;;;5027855;28;20033;-61
2023/06/20 05:36:24;;;;;;;13.25;9.38;;;18.70;99.90;;;;;;5054609;28;20286;-61
2023/06/20 05:38:49;;;;;;;11.07;9.90;;;18.70;99.90;;;;;;5008716;28;20040;-61
2023/06/20 05:41:17;;;;;;;11.70;9.88;;;18.70;99.90;;;;;;5045501;28;20048;-61
2023/06/20 05:43:42;;;;;;;10.35;9.23;;;18.80;99.90;;;;;;5047593;28;20411;-61
2023/06/20 05:46:08;;;;;;;12.13;10.77;;;18.80;99.90;;;;;;5062568;28;20051;-61
2023/06/20 05:48:34;;;;;;;16.48;10.00;;;18.80;99.90;;;;;;5042817;28;20044;-61
2023/06/20 05:51:00;;;;;;;13.88;11.60;;;18.80;99.90;;;;;;5062969;28;20067;-61
2023/06/20 05:53:27;;;;;;;13.88;10.65;;;18.80;99.90;;;;;;5063606;28;20419;-61
2023/06/20 05:55:53;;;;;;;15.60;10.32;;;18.90;99.90;;;;;;5043502;28;20545;-61
2023/06/20 05:58:19;;;;;;;13.05;11.07;;;18.90;99.90;;;;;;5058317;28;20142;-61
2023/06/20 06:00:45;;;;;;;13.27;10.77;;;19.00;99.90;;;;;;5036968;28;20040;-61
2023/06/20 06:03:15;;;;;;;13.45;10.70;;;19.00;99.90;;;;;;5023987;28;20036;-61
2023/06/20 06:05:40;;;;;;;12.40;10.70;;;19.00;99.90;;;;;;5058456;28;20037;-61
2023/06/20 06:08:06;;;;;;;14.27;10.50;;;19.10;99.90;;;;;;5058489;28;20033;-60
2023/06/20 06:10:32;;;;;;;12.38;11.00;;;19.10;99.90;;;;;;5057209;28;20119;-61
2023/06/20 06:12:58;;;;;;;16.23;12.07;;;19.20;99.90;;;;;;5046186;28;20079;-61
2023/06/20 06:15:24;;;;;;;12.65;9.70;;;19.20;99.90;;;;;;5059502;28;20068;-61
2023/06/20 06:17:50;;;;;;;14.15;11.00;;;19.30;99.90;;;;;;5037660;28;20095;-61
2023/06/20 06:20:18;;;;;;;12.73;11.30;;;19.40;99.90;;;;;;5030721;28;20056;-61
2023/06/20 06:22:44;;;;;;;12.35;11.05;;;19.40;99.90;;;;;;5048568;28;20560;-61
2023/06/20 06:25:09;;;;;;;12.63;10.93;;;19.50;99.90;;;;;;5044478;28;20036;-61
2023/06/20 06:27:35;;;;;;;13.38;11.68;;;19.60;99.90;;;;;;5063011;28;20032;-61
2023/06/20 06:30:02;;;;;;;14.02;11.75;;;19.60;99.90;;;;;;5047162;28;20036;-61
2023/06/20 06:32:28;;;;;;;13.93;11.55;;;19.60;99.90;;;;;;5058514;28;20068;-61
2023/06/20 06:34:59;;;;;;;12.25;10.95;;;19.70;99.90;;;;;;5060639;28;20063;-61
2023/06/20 06:37:29;;;;;;;14.45;12.18;;;19.70;99.90;;;;;;5063162;28;20055;-61
2023/06/20 06:39:56;;;;;;;14.48;11.20;;;19.80;99.90;;;;;;5063558;28;20040;-61
2023/06/20 06:42:23;;;;;;;13.18;11.77;;;19.80;99.90;;;;;;5046363;28;20757;-61
2023/06/20 06:44:49;;;;;;;16.67;11.85;;;19.90;99.90;;;;;;5067509;28;20743;-61
2023/06/20 06:47:15;;;;;;;12.73;10.60;;;20.00;99.90;;;;;;5015377;28;20048;-61
2023/06/20 06:49:41;;;;;;;12.90;11.50;;;20.00;99.90;;;;;;5045687;28;20032;-61
2023/06/20 06:52:07;;;;;;;12.50;11.20;;;20.10;99.90;;;;;;5043477;28;20049;-61
2023/06/20 06:54:33;;;;;;;13.10;11.73;;;20.10;99.90;;;;;;5053880;28;20124;-61
2023/06/20 06:56:58;;;;;;;14.70;11.73;;;20.20;99.90;;;;;;5060863;28;20119;-61
2023/06/20 06:59:24;;;;;;;14.30;11.98;;;20.20;99.90;;;;;;5029170;28;20048;-61
2023/06/20 07:01:51;;;;;;;15.60;12.38;;;20.30;99.90;;;;;;5051100;28;20037;-62
2023/06/20 07:04:17;;;;;;;15.52;11.45;;;20.30;99.90;;;;;;5068200;28;20136;-62
2023/06/20 07:06:43;;;;;;;15.88;11.52;;;20.40;99.90;;;;;;5066133;28;20037;-63
2023/06/20 07:09:09;;;;;;;15.95;11.80;;;20.50;99.90;;;;;;5065433;28;20040;-62
2023/06/20 07:11:35;;;;;;;15.07;13.43;;;20.60;99.90;;;;;;5047320;28;20049;-61
2023/06/20 07:14:00;;;;;;;18.02;12.88;;;20.60;99.90;;;;;;5049139;28;20122;-62
2023/06/20 07:16:27;;;;;;;20.73;13.32;;;20.70;99.90;;;;;;5036032;28;20037;-61
2023/06/20 07:18:53;;;;;;;15.43;13.63;;;20.70;99.90;;;;;;5056916;28;20040;-62
2023/06/20 07:21:19;;;;;;;15.95;11.50;;;20.80;99.90;;;;;;5049862;28;20404;-62
2023/06/20 07:23:44;;;;;;;16.27;13.13;;;20.80;99.90;;;;;;5030547;28;20036;-62
2023/06/20 07:26:10;;;;;;;15.27;11.75;;;20.90;99.90;;;;;;5064270;28;20047;-64
2023/06/20 07:28:36;;;;;;;15.98;13.10;;;20.90;99.90;;;;;;5045861;28;20055;-60
2023/06/20 07:31:02;;;;;;;17.10;13.23;;;21.00;99.90;;;;;;5035701;28;20029;-60
2023/06/20 07:33:28;;;;;;;15.40;12.45;;;21.00;99.90;;;;;;5072410;28;20484;-61
2023/06/20 07:35:54;;;;;;;16.23;13.13;;;21.10;99.90;;;;;;5068468;28;20039;-60
2023/06/20 07:38:19;;;;;;;15.25;13.50;;;21.10;99.90;;;;;;5047394;28;20044;-60
2023/06/20 07:40:45;;;;;;;16.60;12.35;;;21.00;99.90;;;;;;5063594;28;20393;-61
2023/06/20 07:43:11;;;;;;;15.75;13.60;;;21.00;99.90;;;;;;5067962;28;20040;-61
2023/06/20 07:45:37;;;;;;;16.52;13.27;;;21.00;99.90;;;;;;5073683;28;20513;-61
2023/06/20 07:48:04;;;;;;;14.55;13.15;;;21.10;99.90;;;;;;5069889;28;20036;-60
2023/06/20 07:50:30;;;;;;;16.90;13.98;;;21.10;99.90;;;;;;5072819;28;20033;-60
2023/06/20 07:52:56;;;;;;;13.85;12.38;;;21.10;99.90;;;;;;5034314;28;20438;-60
2023/06/20 07:55:22;;;;;;;18.05;13.52;;;21.20;99.90;;;;;;5063325;28;20040;-61
2023/06/20 07:57:48;;;;;;;17.95;15.50;;;21.20;99.90;;;;;;5046639;28;20135;-61
2023/06/20 08:00:14;;;;;;;16.67;13.73;;;21.20;99.90;;;;;;5070387;28;20410;-60
2023/06/20 08:02:40;;;;;;;15.65;14.02;;;21.30;99.90;;;;;;5069107;28;20059;-60
2023/06/20 08:05:08;;;;;;;17.92;14.05;;;21.30;99.90;;;;;;5064814;28;20496;-60
2023/06/20 08:07:35;;;;;;;18.48;14.52;;;21.40;99.90;;;;;;5061714;28;20037;-60
2023/06/20 08:10:02;;;;;;;16.63;14.50;;;21.40;99.90;;;;;;5044890;28;20130;-60
2023/06/20 08:12:28;;;;;;;17.63;15.15;;;21.50;99.90;;;;;;5065284;28;20103;-60
2023/06/20 08:14:54;;;;;;;14.93;13.18;;;21.50;99.90;;;;;;5072700;28;20175;-60
2023/06/20 08:17:19;;;;;;;16.52;14.35;;;21.50;99.90;;;;;;5028897;28;20047;-60
2023/06/20 08:19:45;;;;;;;16.52;14.25;;;21.60;99.90;;;;;;5075469;28;20037;-60
2023/06/20 08:22:11;;;;;;;15.45;13.68;;;21.70;99.90;;;;;;5066980;28;20415;-60
2023/06/20 08:24:37;;;;;;;16.70;12.68;;;21.80;99.90;;;;;;5069583;28;20379;-60
2023/06/20 08:27:06;;;;;;;15.95;13.02;;;22.00;99.90;;;;;;5029236;28;20057;-61
2023/06/20 08:29:31;;;;;;;18.45;13.80;;;22.10;99.90;;;;;;5043761;28;20029;-61
2023/06/20 08:31:57;;;;;;;15.63;12.75;;;22.30;99.90;;;;;;5050688;28;20075;-60
2023/06/20 08:34:23;;;;;;;15.45;13.63;;;22.40;99.90;;;;;;5068537;28;20676;-60
2023/06/20 08:36:50;;;;;;;14.70;13.18;;;22.50;99.90;;;;;;5062811;28;20029;-60
2023/06/20 08:39:19;;;;;;;14.60;13.10;;;22.60;99.90;;;;;;5069155;28;20044;-60
2023/06/20 08:41:45;;;;;;;15.23;13.63;;;22.70;99.90;;;;;;5062660;28;20029;-60
2023/06/20 08:44:11;;;;;;;14.25;12.57;;;22.70;99.90;;;;;;5062236;28;20405;-60
2023/06/20 08:46:37;;;;;;;15.38;13.77;;;22.80;99.90;;;;;;5066292;28;20047;-60
2023/06/20 08:49:03;;;;;;;19.60;14.63;;;22.90;99.90;;;;;;5030188;28;20439;-61
2023/06/20 08:51:31;;;;;;;21.77;14.70;;;23.00;99.90;;;;;;5041482;28;20376;-60
2023/06/20 08:54:00;;;;;;;18.83;13.75;;;23.20;99.90;;;;;;5065078;28;20554;-61
2023/06/20 08:56:26;;;;;;;15.18;13.15;;;23.20;99.90;;;;;;5069023;28;20088;-61
2023/06/20 08:58:52;;;;;;;15.60;13.98;;;23.20;99.90;;;;;;5061893;28;20032;-60
2023/06/20 09:01:17;;;;;;;14.93;12.20;;;23.20;99.90;;;;;;5045753;28;20054;-60
2023/06/20 09:03:43;;;;;;;16.08;13.73;;;23.20;99.90;;;;;;5064987;28;20709;-60
2023/06/20 09:06:09;;;;;;;18.58;12.18;;;23.20;99.90;;;;;;5059693;28;20036;-60
2023/06/20 09:08:40;;;;;;;18.63;12.60;;;23.20;99.90;;;;;;5039528;28;20454;-61
2023/06/20 09:11:11;;;;;;;12.93;11.65;;;23.50;99.90;;;;;;5044713;28;20082;-60
2023/06/20 09:13:38;;;;;;;13.43;11.63;;;23.70;99.90;;;;;;5046174;28;20099;-61
2023/06/20 09:16:08;;;;;;;12.73;11.43;;;24.00;99.90;;;;;;5056087;28;20036;-61
2023/06/20 09:18:35;;;;;;;13.38;11.38;;;24.30;99.90;;;;;;5043679;28;20052;-60
2023/06/20 09:21:04;;;;;;;14.10;11.63;;;24.50;99.90;;;;;;5063085;28;20040;-61
2023/06/20 09:23:31;;;;;;;12.23;10.93;;;24.60;99.90;;;;;;5057293;28;20044;-61
2023/06/20 09:25:57;;;;;;;11.73;10.50;;;24.60;99.90;;;;;;5063091;28;20098;-61
2023/06/20 09:28:23;;;;;;;11.10;10.00;;;24.70;99.90;;;;;;5044993;28;20045;-60
2023/06/20 09:30:50;;;;;;;11.48;10.38;;;24.80;99.90;;;;;;5062052;28;20047;-60
2023/06/20 09:33:16;;;;;;;15.88;11.93;;;24.80;99.90;;;;;;5063562;28;20050;-61
2023/06/20 09:35:42;;;;;;;13.82;10.02;;;24.90;99.90;;;;;;5045133;28;20041;-60
2023/06/20 09:38:08;;;;;;;14.40;10.25;;;24.90;99.90;;;;;;5043103;28;20098;-60
2023/06/20 09:40:46;;;;;;;11.90;10.70;;;25.00;99.90;;;;;;5043662;28;20049;-61
2023/06/20 09:43:12;;;;;;;11.95;9.68;;;25.00;99.90;;;;;;5059691;28;20103;-60
2023/06/20 09:45:37;;;;;;;13.35;10.10;;;24.90;99.90;;;;;;5057930;28;20064;-60
2023/06/20 09:48:04;;;;;;;10.30;9.30;;;24.90;99.90;;;;;;5065573;28;20044;-60
2023/06/20 09:50:32;;;;;;;10.07;9.05;;;25.00;99.90;;;;;;5061934;28;20486;-61
2023/06/20 09:53:09;;;;;;;10.55;9.45;;;25.10;99.90;;;;;;5063021;28;20234;-60
2023/06/20 09:55:36;;;;;;;10.88;8.80;;;25.20;99.90;;;;;;5061001;28;20612;-61
2023/06/20 09:58:04;;;;;;;9.95;8.95;;;25.10;99.90;;;;;;5048318;28;20043;-60
2023/06/20 10:00:31;;;;;;;9.18;8.00;;;25.30;99.90;;;;;;5042110;28;20044;-61
2023/06/20 10:03:05;;;;;;;9.35;7.78;;;25.40;99.90;;;;;;5045651;28;20044;-61
2023/06/20 10:05:33;;;;;;;9.63;8.18;;;25.60;99.90;;;;;;5061770;28;20747;-61
2023/06/20 10:08:00;;;;;;;9.05;7.57;;;25.60;99.90;;;;;;5039253;28;20423;-61
2023/06/20 10:10:26;;;;;;;8.05;7.35;;;25.70;99.90;;;;;;5046580;28;20037;-61
2023/06/20 10:12:52;;;;;;;14.02;8.32;;;25.90;99.90;;;;;;5062331;28;20036;-60
2023/06/20 10:15:19;;;;;;;11.15;8.60;;;25.90;99.80;;;;;;5060240;28;20036;-60
2023/06/20 10:17:46;;;;;;;15.80;9.40;;;26.10;99.70;;;;;;5056455;28;20044;-61
2023/06/20 10:20:25;;;;;;;12.10;9.15;;;26.20;99.50;;;;;;5022430;28;20469;-60
2023/06/20 10:22:53;;;;;;;8.93;8.02;;;26.30;99.10;;;;;;5047831;28;20033;-61
2023/06/20 10:25:19;;;;;;;9.60;7.82;;;26.30;99.10;;;;;;5040905;28;20044;-61
2023/06/20 10:28:04;;;;;;;9.43;8.52;;;26.30;99.30;;;;;;5044182;28;20047;-61
2023/06/20 10:30:56;;;;;;;9.35;8.45;;;26.50;99.50;;;;;;5057418;28;20036;-60
2023/06/20 10:33:45;;;;;;;11.32;10.23;;;26.50;98.80;;;;;;5057520;28;20558;-61
2023/06/20 10:36:12;;;;;;;12.88;9.90;;;26.50;98.90;;;;;;5027824;28;20033;-61
2023/06/20 10:38:52;;;;;;;11.73;10.68;;;26.50;98.90;;;;;;5057426;28;20503;-61
2023/06/20 10:41:22;;;;;;;13.07;9.30;;;26.70;99.30;;;;;;5025621;28;20087;-61
2023/06/20 10:43:54;;;;;;;11.30;10.20;;;26.90;99.30;;;;;;5037622;28;20127;-61
2023/06/20 10:46:49;;;;;;;14.00;9.48;;;27.10;99.20;;;;;;5059527;28;20045;-61
2023/06/20 10:49:15;;;;;;;11.63;9.10;;;27.30;98.90;;;;;;5063320;28;20067;-61
2023/06/20 10:51:45;;;;;;;7.38;6.68;;;27.50;98.40;;;;;;5065036;28;20032;-61
2023/06/20 10:54:12;;;;;;;10.68;7.30;;;27.40;98.10;;;;;;5056588;28;20044;-61
2023/06/20 10:56:38;;;;;;;11.10;5.90;;;27.60;98.30;;;;;;5062093;28;20040;-62
2023/06/20 10:59:15;;;;;;;6.40;5.63;;;27.70;97.20;;;;;;5041298;28;20048;-61
2023/06/20 11:01:41;;;;;;;8.95;6.13;;;27.80;97.10;;;;;;5059231;28;20035;-61
2023/06/20 11:04:11;;;;;;;7.72;5.90;;;27.80;96.20;;;;;;5042510;28;20179;-61
2023/06/20 11:06:38;;;;;;;7.93;5.30;;;27.90;96.70;;;;;;5044253;28;20040;-61
2023/06/20 11:09:04;;;;;;;6.47;5.72;;;28.10;96.50;;;;;;5060624;28;20041;-61
2023/06/20 11:11:34;;;;;;;7.40;5.93;;;28.20;96.10;;;;;;5045409;28;20025;-61
2023/06/20 11:14:23;;;;;;;9.07;6.22;;;28.30;96.10;;;;;;5060786;28;20048;-61
2023/06/20 11:16:51;;;;;;;7.53;6.70;;;28.30;94.70;;;;;;5042810;28;20044;-61
2023/06/20 11:19:20;;;;;;;6.47;5.75;;;28.20;95.70;;;;;;5057031;28;20031;-61
2023/06/20 11:21:46;;;;;;;6.63;5.93;;;28.20;95.80;;;;;;5053653;28;20040;-62
2023/06/20 11:24:12;;;;;;;7.90;5.78;;;28.20;95.60;;;;;;5059109;28;20036;-61
2023/06/20 11:26:38;;;;;;;6.70;5.65;;;28.40;95.90;;;;;;5044562;28;20151;-61
2023/06/20 11:29:05;;;;;;;7.55;6.13;;;28.60;95.70;;;;;;5063522;28;20056;-61
2023/06/20 11:31:32;;;;;;;7.35;6.43;;;28.60;94.80;;;;;;5066618;28;20923;-61
2023/06/20 11:34:10;;;;;;;6.90;6.25;;;28.50;94.80;;;;;;5061063;28;20518;-62
2023/06/20 11:36:38;;;;;;;7.25;6.43;;;28.30;95.00;;;;;;5042225;28;20033;-61
2023/06/20 11:39:14;;;;;;;6.07;4.95;;;28.30;94.60;;;;;;5064372;28;20127;-61
2023/06/20 11:41:40;;;;;;;8.55;5.28;;;28.50;94.80;;;;;;5030896;28;20161;-62
2023/06/20 11:44:21;;;;;;;7.70;5.20;;;28.40;94.40;;;;;;5042128;28;20056;-62
2023/06/20 11:46:47;;;;;;;6.30;5.03;;;28.40;94.20;;;;;;5060929;28;20122;-61
2023/06/20 11:49:13;;;;;;;6.07;5.47;;;28.60;94.60;;;;;;5052049;28;20120;-61
2023/06/20 11:51:39;;;;;;;5.55;5.00;;;28.80;94.00;;;;;;5071132;28;20086;-61
2023/06/20 11:54:12;;;;;;;6.80;5.88;;;28.90;94.00;;;;;;5044359;28;20079;-61
2023/06/20 11:56:42;;;;;;;6.95;5.53;;;29.00;93.40;;;;;;5070153;28;20063;-61
2023/06/20 11:59:08;;;;;;;5.78;5.18;;;29.00;93.30;;;;;;5048668;28;20053;-62
2023/06/20 12:01:34;;;;;;;7.32;4.78;;;28.90;93.20;;;;;;5074783;28;20048;-61
2023/06/20 12:04:06;;;;;;;5.53;4.95;;;29.00;93.70;;;;;;5068254;28;20048;-62
2023/06/20 12:06:34;;;;;;;6.22;5.18;;;29.20;92.80;;;;;;5034318;28;20032;-60
2023/06/20 12:09:04;;;;;;;7.05;5.15;;;29.30;92.90;;;;;;5051410;28;20040;-60
2023/06/20 12:11:30;;;;;;;6.10;5.10;;;29.40;92.60;;;;;;5071046;28;20055;-62
2023/06/20 12:13:56;;;;;;;5.32;4.72;;;29.30;92.30;;;;;;5053449;28;20107;-61
2023/06/20 12:16:23;;;;;;;6.63;4.68;;;29.40;92.80;;;;;;5048190;28;20111;-61
2023/06/20 12:18:51;;;;;;;5.65;5.05;;;29.50;92.40;;;;;;5049456;28;20452;-61
2023/06/20 12:21:17;;;;;;;5.72;4.95;;;29.60;92.50;;;;;;5045750;28;20032;-61
2023/06/20 12:23:43;;;;;;;8.55;5.72;;;29.70;92.40;;;;;;5052384;28;20436;-61
2023/06/20 12:26:09;;;;;;;8.65;6.10;;;29.80;92.30;;;;;;5048345;28;20043;-62
2023/06/20 12:28:36;;;;;;;6.88;5.35;;;29.70;91.80;;;;;;5055235;28;20433;-62
2023/06/20 12:31:05;;;;;;;6.80;6.13;;;29.70;92.30;;;;;;5027247;28;20056;-61
2023/06/20 12:33:31;;;;;;;8.30;6.15;;;29.70;91.90;;;;;;5072929;28;20043;-61
2023/06/20 12:35:58;;;;;;;7.38;5.80;;;29.80;92.10;;;;;;5068419;28;20612;-61
2023/06/20 12:38:25;;;;;;;7.95;6.47;;;29.80;91.90;;;;;;5072709;28;20048;-61